Terminal Aerodrome Forecast
Issued by NWS

Home | Current Version | Previous Version | Text Only | Print | Product List | Glossary On
Versions: 1 2 3 4 5 6 7 8 9 10 11 12 13 14 15
000
FTUS43 KMQT 012338
TAFIWD
TAF
KIWD 012338Z 0200/0224 23008KT P6SM SCT120
     FM021000 24005KT P6SM -SHRA BKN050
     FM021500 30007KT P6SM -SHRA SCT040 BKN050
     FM022000 30008KT P6SM BKN070
      AMD LTD TO CLD VIS AND WIND=

USA.gov is the U.S. government's official web portal to all federal, state and local government web resources and services.